Terminal Aerodrome Forecast
Issued by NWS

Home | Current Version | Previous Version | Graphics & Text | Print | Product List | Glossary On
Versions: 1 2 3 4 5 6 7 8 9 10 11 12 13 14 15 16 17 18 19
181
FTUS43 KBIS 250530 AAB
TAFDIK
TAF AMD
KDIK 250530Z 2506/2606 14016KT P6SM BKN200
     FM250900 16016KT P6SM BKN200 WS020/19045KT
     FM251200 17018KT P6SM BKN200
     FM252000 20013KT P6SM BKN150
     FM252300 29012KT P6SM -SHRA BKN060
     FM260500 36008KT P6SM OVC080=

USA.gov is the U.S. government's official web portal to all federal, state and local government web resources and services.